Morada, California
Current Conditions -  °F | °C
As of 8:55 PM on Wednesday 22 Oct 2014 (Local Time) from KSCK Reporting Station
Clear Clear  
Wind Chill: 64°   Ceiling: Unl
Heat Index: 64°   Visibility: 10mi
Dew Point: 41°   Wind: 0mph
Humidity: 43%   Direction: NA
Pressure: 30.03"   Gusts: NA
Location:  38.0455°N, 121.227°W
Report Text: KSCK 230355Z AUTO 00000KT 10SM CLR 18/05 A3003 RMK AO2 SLP167 T01780050
Loading
Personal Weather Stations






























Interactive Weather Map
Tropical Storm Tracking
New forecast layout! Learn more

10-Day Weather Forecast

Advertisements
Track Severe Weather on mobile